Disclaimer

Please do not use the information listed here in-flight or in-navigation, as they are not provided to us by the airports but are provided by volunteers, so they might be outdated.

Search


Regions


Airport information page

Radio informations:
LONDON RDO - 126.7 MHz
Ground (GND) - 121.7 MHz
VFR ADVSY - 134.3 MHz
DETROIT APP/DEP - 126.85 MHz

Airport informations:
Latitude: 42° 16' 32.00" N
Longitude: 082° 57' 20.00" W
Elevation: 622 feet - 190 meters
Operating hours: 24 hour operations
Operating agency: Private
Timezone: UTC-5(-4DT) - Second Sunday in March at 0200 to first Sunday in November at 0200 local time (Exception Arizona and that portion of Indiana in the Eastern Time Zone)
Fuel: Jet A1, without icing nhibitor.

80/87 octane gasoline, leaded, MIL-L-5572F (RED)

100/130 MIL Spec, low lead, aviation gasoline (BLUE)

Runway information:
07/25 - 9000 x 200 feet< - >2743 x 61 meters
12/30 - 5150 x 150 feet< - >1570 x 46 meters

Recent METARs:
CYQG 181724Z AUTO 00000KT 6SM -RA BR BKN003 OVC016 01/01 A3022 RMK SLP244
CYQG 181758Z AUTO VRB02KT 9SM -RA SCT005 BKN009 BKN016 OVC022 02/01 A3020 RMK SLP234
CYQG 181814Z AUTO 36003KT 330V040 9SM FEW004 BKN007 BKN016 OVC022 02/00 A3019 RMK SLP233

Airport on the map: